createdAt,value
2023-04-22T00:01:58.716Z,52.75
2023-04-22T00:04:25.477Z,52.36
2023-04-22T00:06:52.103Z,53.55
2023-04-22T00:09:18.582Z,53.18
2023-04-22T00:11:45.103Z,53.85
2023-04-22T00:14:11.777Z,53.61
2023-04-22T00:16:38.876Z,54.16
2023-04-22T00:19:05.920Z,54.90
2023-04-22T00:21:33.737Z,54.63
2023-04-22T00:24:00.722Z,55.19
2023-04-22T00:26:27.550Z,54.52
2023-04-22T00:28:54.053Z,54.99
2023-04-22T00:31:24.270Z,55.83
2023-04-22T00:33:51.032Z,54.37
2023-04-22T00:36:17.579Z,54.87
2023-04-22T00:38:49.195Z,55.70
2023-04-22T00:41:15.825Z,55.77
2023-04-22T00:43:42.430Z,55.00
2023-04-22T00:46:09.266Z,55.57
2023-04-22T00:48:39.012Z,55.40
2023-04-22T00:51:06.168Z,56.03
2023-04-22T00:53:32.811Z,56.12
2023-04-22T00:55:59.620Z,56.65
2023-04-22T00:58:29.167Z,56.44
2023-04-22T01:00:56.093Z,55.71
2023-04-22T01:03:24.327Z,55.54
2023-04-22T01:05:51.139Z,55.92
2023-04-22T01:08:17.771Z,56.07
2023-04-22T01:10:44.299Z,56.35
2023-04-22T01:13:10.729Z,56.49
2023-04-22T01:15:37.441Z,55.90
2023-04-22T01:18:04.476Z,56.56
2023-04-22T01:20:31.016Z,56.84
2023-04-22T01:22:58.374Z,56.00
2023-04-22T01:25:25.928Z,56.38
2023-04-22T01:27:53.381Z,56.01
2023-04-22T01:30:20.212Z,56.64
2023-04-22T01:32:46.804Z,56.47
2023-04-22T01:35:13.881Z,56.43
2023-04-22T01:37:40.475Z,56.39
2023-04-22T01:40:09.745Z,56.69
2023-04-22T01:42:36.450Z,56.67
2023-04-22T01:45:03.127Z,56.56
2023-04-22T01:47:29.703Z,57.92
2023-04-22T01:49:56.147Z,58.20
2023-04-22T01:52:22.923Z,57.35
2023-04-22T01:54:49.414Z,57.69
2023-04-22T01:57:16.500Z,57.40
2023-04-22T01:59:43.050Z,57.80
2023-04-22T02:02:09.686Z,58.26
2023-04-22T02:04:36.566Z,58.93
2023-04-22T02:07:03.138Z,58.16
2023-04-22T02:09:29.575Z,58.37
2023-04-22T02:11:56.073Z,58.57
2023-04-22T02:14:22.604Z,59.12
2023-04-22T02:16:49.089Z,57.96
2023-04-22T02:19:15.707Z,59.02
2023-04-22T02:21:42.221Z,59.53
2023-04-22T02:24:09.290Z,58.97
2023-04-22T02:26:35.994Z,59.33
2023-04-22T02:29:02.525Z,58.74
2023-04-22T02:31:29.043Z,59.05
2023-04-22T02:33:55.779Z,59.16
2023-04-22T02:36:22.288Z,60.05
2023-04-22T02:38:49.159Z,59.58
2023-04-22T02:41:15.650Z,59.81
2023-04-22T02:43:46.081Z,60.53
2023-04-22T02:46:13.789Z,61.09
2023-04-22T02:48:40.256Z,60.79
2023-04-22T02:51:07.150Z,60.61
2023-04-22T02:53:33.619Z,60.73
2023-04-22T02:56:00.142Z,60.61
2023-04-22T02:58:26.831Z,61.21
2023-04-22T03:00:53.602Z,60.82
2023-04-22T03:03:20.211Z,60.89
2023-04-22T03:05:46.758Z,61.41
2023-04-22T03:08:13.268Z,60.74
2023-04-22T03:10:39.735Z,62.13
2023-04-22T03:13:06.221Z,60.42
2023-04-22T03:15:32.678Z,60.99
2023-04-22T03:17:59.209Z,61.06
2023-04-22T03:20:25.731Z,61.40
2023-04-22T03:22:52.202Z,60.34
2023-04-22T03:25:19.141Z,61.36
2023-04-22T03:27:45.599Z,61.08
2023-04-22T03:30:12.182Z,62.00
2023-04-22T03:32:38.891Z,62.00
2023-04-22T03:35:06.017Z,62.13
2023-04-22T03:37:32.501Z,61.67
2023-04-22T03:39:58.950Z,61.24
2023-04-22T03:42:25.795Z,61.12
2023-04-22T03:44:52.660Z,60.40
2023-04-22T03:47:19.127Z,61.06
2023-04-22T03:49:45.968Z,61.03
2023-04-22T03:52:12.445Z,61.67
2023-04-22T03:54:38.888Z,61.51
2023-04-22T03:57:05.351Z,61.36
2023-04-22T03:59:31.766Z,61.33
2023-04-22T04:01:58.245Z,62.11
2023-04-22T04:04:25.402Z,60.97
2023-04-22T04:06:52.029Z,61.63
2023-04-22T04:09:18.490Z,62.35
2023-04-22T04:11:44.992Z,61.57
2023-04-22T04:14:11.494Z,61.18
2023-04-22T04:16:38.056Z,61.60
2023-04-22T04:19:05.708Z,61.39
2023-04-22T04:21:33.446Z,60.88
2023-04-22T04:24:00.715Z,60.77
2023-04-22T04:26:30.031Z,60.74
2023-04-22T04:28:56.481Z,61.72
2023-04-22T04:31:24.811Z,61.89
2023-04-22T04:33:52.472Z,61.60
2023-04-22T04:36:19.864Z,61.78
2023-04-22T04:38:47.730Z,62.29
2023-04-22T04:41:14.562Z,61.71
2023-04-22T04:43:41.112Z,62.01
2023-04-22T04:46:08.381Z,62.91
2023-04-22T04:48:36.329Z,62.54
2023-04-22T04:51:04.429Z,62.45
2023-04-22T04:53:30.970Z,63.15
2023-04-22T04:55:57.527Z,63.03
2023-04-22T04:58:24.005Z,63.19
2023-04-22T05:00:50.431Z,64.07
2023-04-22T05:03:17.265Z,64.47
2023-04-22T05:05:43.915Z,63.10
2023-04-22T05:08:10.394Z,63.40
2023-04-22T05:10:36.898Z,63.21
2023-04-22T05:13:04.450Z,62.73
2023-04-22T05:15:31.024Z,62.07
2023-04-22T05:17:57.504Z,62.12
2023-04-22T05:20:24.102Z,61.52
2023-04-22T05:22:50.677Z,61.58
2023-04-22T05:25:17.236Z,60.53
2023-04-22T05:27:43.744Z,61.27
2023-04-22T05:30:10.854Z,59.75
2023-04-22T05:32:37.373Z,60.71
2023-04-22T05:35:04.094Z,59.86
2023-04-22T05:37:30.575Z,58.99
2023-04-22T05:39:57.040Z,58.53
2023-04-22T05:42:23.495Z,58.60
2023-04-22T05:44:49.932Z,58.69
2023-04-22T05:47:16.397Z,58.72
2023-04-22T05:49:42.952Z,57.63
2023-04-22T05:52:09.560Z,57.09
2023-04-22T05:54:37.299Z,56.94
2023-04-22T05:57:03.803Z,57.48
2023-04-22T05:59:30.282Z,56.94
2023-04-22T06:01:56.813Z,56.78
2023-04-22T06:04:23.717Z,56.05
2023-04-22T06:06:53.710Z,55.37
2023-04-22T06:09:21.447Z,56.31
2023-04-22T06:11:48.399Z,55.44
2023-04-22T06:14:14.845Z,56.00
2023-04-22T06:16:41.516Z,55.15
2023-04-22T06:19:08.104Z,55.68
2023-04-22T06:21:36.954Z,55.54
2023-04-22T06:24:05.274Z,55.54
2023-04-22T06:26:31.804Z,55.28
2023-04-22T06:28:59.382Z,54.08
2023-04-22T06:31:25.918Z,54.56
2023-04-22T06:33:52.394Z,53.26
2023-04-22T06:36:18.869Z,51.75
2023-04-22T06:38:45.328Z,53.22
2023-04-22T06:41:11.851Z,52.49
2023-04-22T06:43:38.291Z,52.19
2023-04-22T06:46:04.970Z,51.96
2023-04-22T06:48:31.444Z,52.04
2023-04-22T06:50:57.932Z,51.87
2023-04-22T06:53:24.438Z,51.70
2023-04-22T06:55:51.117Z,51.15
2023-04-22T06:58:17.603Z,51.71
2023-04-22T07:00:44.093Z,51.47
2023-04-22T07:03:10.733Z,51.60
2023-04-22T07:05:39.633Z,51.97
2023-04-22T07:08:06.398Z,50.69
2023-04-22T07:10:33.679Z,51.05
2023-04-22T07:13:00.319Z,49.10
2023-04-22T07:15:26.843Z,50.44
2023-04-22T07:17:53.548Z,50.56
2023-04-22T07:20:20.101Z,49.54
2023-04-22T07:22:46.595Z,49.87
2023-04-22T07:25:13.040Z,49.98
2023-04-22T07:27:39.785Z,48.49
2023-04-22T07:30:07.829Z,49.28
2023-04-22T07:32:34.347Z,48.80
2023-04-22T07:35:00.844Z,46.56
2023-04-22T07:37:27.348Z,46.95
2023-04-22T07:39:53.828Z,47.50
2023-04-22T07:42:20.633Z,47.87
2023-04-22T07:44:47.100Z,47.54
2023-04-22T07:47:13.998Z,45.59
2023-04-22T07:49:41.248Z,45.26
2023-04-22T07:52:08.228Z,47.36
2023-04-22T07:54:34.732Z,46.57
2023-04-22T07:57:01.873Z,47.56
2023-04-22T07:59:28.484Z,47.29
2023-04-22T08:01:54.998Z,46.06
2023-04-22T08:04:23.315Z,45.99
2023-04-22T08:06:50.356Z,44.95
2023-04-22T08:09:17.293Z,44.64
2023-04-22T08:11:46.908Z,44.92
2023-04-22T08:14:13.409Z,46.03
2023-04-22T08:16:40.325Z,45.30
2023-04-22T08:19:06.842Z,45.78
2023-04-22T08:21:33.290Z,45.97
2023-04-22T08:23:59.831Z,44.88
2023-04-22T08:26:26.448Z,43.98
2023-04-22T08:28:53.024Z,43.26
2023-04-22T08:31:19.745Z,43.06
2023-04-22T08:33:46.325Z,43.29
2023-04-22T08:36:13.165Z,43.84
2023-04-22T08:38:39.808Z,43.40
2023-04-22T08:41:07.095Z,43.44
2023-04-22T08:43:34.563Z,44.33
2023-04-22T08:46:02.282Z,43.66
2023-04-22T08:48:28.869Z,43.60
2023-04-22T08:50:55.531Z,43.02
2023-04-22T08:53:24.403Z,42.87
2023-04-22T08:55:51.870Z,42.77
2023-04-22T08:58:18.354Z,42.18
2023-04-22T09:00:45.034Z,43.23
2023-04-22T09:03:11.825Z,42.05
2023-04-22T09:05:40.818Z,41.99
2023-04-22T09:08:08.086Z,43.63
2023-04-22T09:10:38.543Z,41.84
2023-04-22T09:13:06.814Z,42.82
2023-04-22T09:15:33.694Z,43.04
2023-04-22T09:18:02.614Z,43.17
2023-04-22T09:20:29.982Z,42.59
2023-04-22T09:22:58.335Z,43.14
2023-04-22T09:25:27.587Z,41.68
2023-04-22T09:27:57.394Z,40.83
2023-04-22T09:30:26.375Z,41.41
2023-04-22T09:32:59.940Z,42.60
2023-04-22T09:35:34.589Z,40.00
2023-04-22T09:38:03.164Z,41.44
2023-04-22T09:40:30.819Z,41.09
2023-04-22T09:43:00.333Z,41.52
2023-04-22T09:45:31.575Z,40.61
2023-04-22T09:48:08.879Z,40.68
2023-04-22T09:50:36.600Z,40.19
2023-04-22T09:53:05.476Z,40.60
2023-04-22T09:55:35.631Z,40.18
2023-04-22T09:58:08.423Z,40.23
2023-04-22T10:00:38.072Z,41.12
2023-04-22T10:03:08.016Z,40.74
2023-04-22T10:05:37.836Z,40.64
2023-04-22T10:08:08.830Z,41.75
2023-04-22T10:10:36.356Z,40.53
2023-04-22T10:13:06.860Z,40.51
2023-04-22T10:15:36.246Z,39.32
2023-04-22T10:18:06.635Z,40.67
2023-04-22T10:20:36.726Z,40.75
2023-04-22T10:23:05.307Z,40.61
2023-04-22T10:25:31.898Z,40.57
2023-04-22T10:28:09.795Z,41.77
2023-04-22T10:30:38.284Z,40.06
2023-04-22T10:33:31.500Z,38.74
2023-04-22T10:36:12.000Z,39.51
2023-04-22T10:38:42.143Z,40.55
2023-04-22T10:41:15.460Z,39.94
2023-04-22T10:43:42.721Z,38.68
2023-04-22T10:46:37.083Z,41.12
2023-04-22T10:49:08.946Z,39.18
2023-04-22T10:51:46.507Z,40.86
2023-04-22T10:54:31.476Z,38.83
2023-04-22T10:57:12.439Z,38.63
2023-04-22T10:59:47.231Z,39.10
2023-04-22T11:02:18.833Z,39.69
2023-04-22T11:04:45.922Z,38.34
2023-04-22T11:07:28.016Z,39.92
2023-04-22T11:10:05.451Z,37.76
2023-04-22T11:12:34.990Z,38.04
2023-04-22T11:15:05.351Z,39.19
2023-04-22T11:17:31.879Z,37.07
2023-04-22T11:19:58.984Z,37.14
2023-04-22T11:22:25.618Z,37.10
2023-04-22T11:24:55.883Z,35.48
2023-04-22T11:27:27.759Z,35.58
2023-04-22T11:30:04.635Z,36.56
2023-04-22T11:32:31.730Z,37.11
2023-04-22T11:34:58.444Z,39.32
2023-04-22T11:37:26.362Z,37.34
2023-04-22T11:40:13.557Z,38.32
2023-04-22T11:42:40.024Z,36.74
2023-04-22T11:45:07.709Z,37.13
2023-04-22T11:47:34.772Z,36.93
2023-04-22T11:50:05.177Z,38.09
2023-04-22T11:52:45.701Z,37.30
2023-04-22T11:55:17.347Z,37.46
2023-04-22T11:57:45.731Z,38.51
2023-04-22T12:00:14.964Z,35.92
2023-04-22T12:02:42.049Z,36.06
2023-04-22T12:05:15.415Z,35.66
2023-04-22T12:07:43.143Z,35.25
2023-04-22T12:10:10.933Z,36.11
2023-04-22T12:12:39.911Z,36.19
2023-04-22T12:15:13.393Z,36.28
2023-04-22T12:17:40.852Z,36.99
2023-04-22T12:20:13.062Z,35.77
2023-04-22T12:22:39.766Z,35.20
2023-04-22T12:25:06.616Z,34.73
2023-04-22T12:27:33.088Z,35.18
2023-04-22T12:29:59.588Z,36.24
2023-04-22T12:32:26.868Z,35.13
2023-04-22T12:34:53.526Z,35.37
2023-04-22T12:37:19.981Z,34.57
2023-04-22T12:39:46.625Z,35.12
2023-04-22T12:42:13.157Z,34.80
2023-04-22T12:44:39.649Z,34.35
2023-04-22T12:47:06.161Z,35.93
2023-04-22T12:49:32.640Z,36.50
2023-04-22T12:51:59.085Z,36.03
2023-04-22T12:54:25.577Z,35.66
2023-04-22T12:56:52.189Z,36.14
2023-04-22T12:59:19.424Z,36.20
2023-04-22T13:01:45.921Z,35.17
2023-04-22T13:04:12.435Z,36.43
2023-04-22T13:06:39.022Z,34.58
2023-04-22T13:09:06.171Z,34.48
2023-04-22T13:11:32.612Z,33.45
2023-04-22T13:13:59.075Z,33.69
2023-04-22T13:16:25.564Z,33.31
2023-04-22T13:18:52.070Z,34.71
2023-04-22T13:21:18.530Z,35.75
2023-04-22T13:23:45.045Z,34.62
2023-04-22T13:26:11.952Z,33.37
2023-04-22T13:28:38.548Z,35.72
2023-04-22T13:31:05.038Z,35.56
2023-04-22T13:33:31.560Z,36.98
2023-04-22T13:35:58.318Z,37.31
2023-04-22T13:38:25.191Z,36.51
2023-04-22T13:40:51.624Z,34.91
2023-04-22T13:43:18.094Z,34.67
2023-04-22T13:45:44.603Z,35.06
2023-04-22T13:48:11.226Z,35.87
2023-04-22T13:50:37.756Z,36.37
2023-04-22T13:53:04.839Z,35.48
2023-04-22T13:55:31.352Z,35.59
2023-04-22T13:57:58.209Z,35.91
2023-04-22T14:00:24.905Z,35.97
2023-04-22T14:02:51.518Z,37.63
2023-04-22T14:05:18.130Z,37.78
2023-04-22T14:07:44.629Z,37.35
2023-04-22T14:10:13.154Z,38.85
2023-04-22T14:12:40.208Z,38.02
2023-04-22T14:15:10.749Z,39.47
2023-04-22T14:17:37.318Z,40.08
2023-04-22T14:20:05.208Z,39.49
2023-04-22T14:22:31.656Z,38.31
2023-04-22T14:24:58.437Z,38.30
2023-04-22T14:27:26.331Z,38.75
2023-04-22T14:29:53.278Z,39.83
2023-04-22T14:32:20.600Z,39.88
2023-04-22T14:34:47.392Z,39.53
2023-04-22T14:37:13.947Z,39.57
2023-04-22T14:39:40.767Z,39.80
2023-04-22T14:42:07.420Z,38.80
2023-04-22T14:44:33.920Z,38.21
2023-04-22T14:47:00.442Z,39.21
2023-04-22T14:49:26.935Z,40.15
2023-04-22T14:51:53.371Z,40.57
2023-04-22T14:54:19.868Z,40.21
2023-04-22T14:56:46.381Z,40.40
2023-04-22T14:59:12.860Z,40.16
2023-04-22T15:01:41.844Z,40.58
2023-04-22T15:04:08.475Z,40.75
2023-04-22T15:06:35.052Z,41.70
2023-04-22T15:09:01.657Z,41.10
2023-04-22T15:11:28.117Z,40.75
2023-04-22T15:13:54.565Z,40.79
2023-04-22T15:16:21.190Z,41.35
2023-04-22T15:18:48.038Z,40.72
2023-04-22T15:21:14.509Z,41.36
2023-04-22T15:23:41.057Z,40.88
2023-04-22T15:26:07.566Z,40.05
2023-04-22T15:28:34.031Z,40.19
2023-04-22T15:31:01.105Z,40.27
2023-04-22T15:33:27.812Z,40.28
2023-04-22T15:35:54.378Z,40.83
2023-04-22T15:38:21.196Z,40.52
2023-04-22T15:40:47.861Z,40.69
2023-04-22T15:43:14.335Z,39.92
2023-04-22T15:45:41.246Z,40.55
2023-04-22T15:48:08.703Z,39.83
2023-04-22T15:50:38.787Z,39.85
2023-04-22T15:53:07.066Z,40.40
2023-04-22T15:55:33.678Z,40.74
2023-04-22T15:58:00.612Z,40.22
2023-04-22T16:00:27.318Z,39.51
2023-04-22T16:02:56.744Z,39.26
2023-04-22T16:05:24.920Z,38.86
2023-04-22T16:07:53.042Z,38.98
2023-04-22T16:10:19.646Z,38.78
2023-04-22T16:12:46.453Z,39.29
2023-04-22T16:15:12.978Z,39.59
2023-04-22T16:17:39.533Z,39.67
2023-04-22T16:20:06.729Z,39.47
2023-04-22T16:22:33.593Z,39.18
2023-04-22T16:25:00.058Z,38.85
2023-04-22T16:27:26.502Z,38.60
2023-04-22T16:29:53.504Z,39.26
2023-04-22T16:32:20.028Z,39.00
2023-04-22T16:34:46.496Z,39.06
2023-04-22T16:37:12.929Z,39.41
2023-04-22T16:39:39.509Z,39.46
2023-04-22T16:42:06.951Z,39.76
2023-04-22T16:44:34.036Z,39.44
2023-04-22T16:47:00.544Z,39.49
2023-04-22T16:49:27.029Z,40.49
2023-04-22T16:51:53.492Z,39.33
2023-04-22T16:54:19.948Z,39.31
2023-04-22T16:56:46.511Z,39.43
2023-04-22T16:59:14.618Z,39.83
2023-04-22T17:01:42.328Z,39.37
2023-04-22T17:04:08.954Z,39.60
2023-04-22T17:06:36.595Z,39.48
2023-04-22T17:09:05.699Z,39.90
2023-04-22T17:11:32.350Z,39.74
2023-04-22T17:13:58.990Z,39.91
2023-04-22T17:16:25.698Z,40.59
2023-04-22T17:18:52.358Z,40.25
2023-04-22T17:21:18.903Z,39.66
2023-04-22T17:23:46.766Z,40.52
2023-04-22T17:26:16.769Z,40.67
2023-04-22T17:28:45.654Z,40.41
2023-04-22T17:31:14.249Z,40.94
2023-04-22T17:33:44.604Z,40.22
2023-04-22T17:36:11.872Z,40.56
2023-04-22T17:38:46.268Z,40.52
2023-04-22T17:41:19.487Z,41.27
2023-04-22T17:43:47.241Z,41.16
2023-04-22T17:46:15.007Z,41.98
2023-04-22T17:48:43.799Z,42.15
2023-04-22T17:51:14.129Z,42.40
2023-04-22T17:53:42.872Z,43.07
2023-04-22T17:56:14.616Z,42.64
2023-04-22T17:58:47.727Z,43.44
2023-04-22T18:01:18.074Z,43.19
2023-04-22T18:03:45.447Z,43.46
2023-04-22T18:06:15.593Z,43.28
2023-04-22T18:08:43.063Z,43.35
2023-04-22T18:11:13.568Z,43.78
2023-04-22T18:13:41.065Z,43.30
2023-04-22T18:16:09.118Z,43.73
2023-04-22T18:18:41.166Z,44.15
2023-04-22T18:21:13.886Z,44.32
2023-04-22T18:23:40.507Z,44.33
2023-04-22T18:26:12.696Z,43.93
2023-04-22T18:28:43.494Z,44.88
2023-04-22T18:31:10.073Z,44.89
2023-04-22T18:33:36.562Z,44.87
2023-04-22T18:36:03.412Z,44.97
2023-04-22T18:38:29.836Z,45.40
2023-04-22T18:40:56.492Z,45.25
2023-04-22T18:43:22.975Z,45.19
2023-04-22T18:45:49.518Z,45.26
2023-04-22T18:48:16.135Z,45.83
2023-04-22T18:50:42.650Z,45.54
2023-04-22T18:53:09.197Z,45.85
2023-04-22T18:55:35.675Z,45.90
2023-04-22T18:58:02.213Z,45.43
2023-04-22T19:00:28.968Z,45.51
2023-04-22T19:02:55.547Z,46.00
2023-04-22T19:05:22.043Z,45.68
2023-04-22T19:07:48.496Z,45.49
2023-04-22T19:10:15.107Z,45.42
2023-04-22T19:12:41.688Z,45.58
2023-04-22T19:15:08.576Z,45.32
2023-04-22T19:17:35.243Z,46.23
2023-04-22T19:20:01.782Z,45.97
2023-04-22T19:22:28.387Z,45.81
2023-04-22T19:24:54.851Z,47.07
2023-04-22T19:27:21.430Z,46.13
2023-04-22T19:29:51.348Z,45.88
2023-04-22T19:32:17.988Z,46.10
2023-04-22T19:34:44.796Z,45.92
2023-04-22T19:37:11.566Z,45.83
2023-04-22T19:39:38.016Z,46.09
2023-04-22T19:42:04.898Z,46.03
2023-04-22T19:44:31.674Z,46.41
2023-04-22T19:46:58.326Z,46.40
2023-04-22T19:49:25.149Z,46.70
2023-04-22T19:51:52.858Z,46.11
2023-04-22T19:54:21.507Z,46.44
2023-04-22T19:56:49.134Z,46.21
2023-04-22T19:59:16.126Z,45.81
2023-04-22T20:01:42.899Z,46.65
2023-04-22T20:04:09.876Z,54.03
2023-04-22T20:06:36.728Z,59.42
2023-04-22T20:09:05.491Z,61.98
2023-04-22T20:11:32.689Z,60.55
2023-04-22T20:13:59.933Z,64.58
2023-04-22T20:16:27.786Z,65.07
2023-04-22T20:18:55.322Z,66.07
2023-04-22T20:21:22.496Z,66.02
2023-04-22T20:23:50.957Z,65.77
2023-04-22T20:26:19.487Z,65.77
2023-04-22T20:28:52.138Z,65.37
2023-04-22T20:31:20.648Z,65.76
2023-04-22T20:33:47.538Z,65.68
2023-04-22T20:36:16.876Z,66.30
2023-04-22T20:38:47.384Z,68.00
2023-04-22T20:41:15.503Z,68.29
2023-04-22T20:43:44.881Z,68.47
2023-04-22T20:46:11.716Z,67.40
2023-04-22T20:48:38.535Z,68.25
2023-04-22T20:51:05.627Z,68.69
2023-04-22T20:53:32.255Z,69.38
2023-04-22T20:55:58.731Z,70.87
2023-04-22T20:58:26.019Z,69.90
2023-04-22T21:00:52.489Z,70.47
2023-04-22T21:03:19.710Z,70.04
2023-04-22T21:05:46.931Z,70.33
2023-04-22T21:08:23.121Z,70.16
2023-04-22T21:10:52.653Z,69.73
2023-04-22T21:13:20.177Z,71.53
2023-04-22T21:15:59.619Z,70.92
2023-04-22T21:18:27.014Z,70.58
2023-04-22T21:20:54.409Z,70.31
2023-04-22T21:23:21.317Z,70.20
2023-04-22T21:25:48.630Z,68.60
2023-04-22T21:28:16.185Z,68.92
2023-04-22T21:30:43.190Z,68.44
2023-04-22T21:33:10.276Z,68.64
2023-04-22T21:35:39.135Z,68.87
2023-04-22T21:38:05.892Z,69.03
2023-04-22T21:40:32.369Z,68.04
2023-04-22T21:43:00.221Z,66.67
2023-04-22T21:45:27.990Z,65.31
2023-04-22T21:47:54.738Z,66.33
2023-04-22T21:50:21.622Z,65.85
2023-04-22T21:52:49.576Z,66.74
2023-04-22T21:55:16.393Z,67.18
2023-04-22T21:57:42.901Z,66.64
2023-04-22T22:00:19.365Z,67.54
2023-04-22T22:02:47.123Z,66.14
2023-04-22T22:05:16.623Z,65.83
2023-04-22T22:07:45.543Z,67.18
2023-04-22T22:10:23.014Z,66.89
2023-04-22T22:12:55.607Z,66.90
2023-04-22T22:15:23.675Z,67.64
2023-04-22T22:17:52.263Z,68.05
2023-04-22T22:20:21.985Z,68.74
2023-04-22T22:22:49.719Z,69.62
2023-04-22T22:25:17.117Z,69.52
2023-04-22T22:27:49.507Z,69.71
2023-04-22T22:30:20.781Z,68.48
2023-04-22T22:32:47.767Z,68.28
2023-04-22T22:35:14.430Z,69.95
2023-04-22T22:37:41.194Z,68.62
2023-04-22T22:40:08.884Z,69.20
2023-04-22T22:42:36.182Z,68.94
2023-04-22T22:45:03.452Z,68.94
2023-04-22T22:47:30.137Z,69.50
2023-04-22T22:49:57.175Z,70.19
2023-04-22T22:52:23.707Z,70.29
2023-04-22T22:54:50.575Z,69.94
2023-04-22T22:57:17.247Z,70.41
2023-04-22T22:59:43.738Z,70.52
2023-04-22T23:02:11.179Z,70.67
2023-04-22T23:04:39.465Z,69.67
2023-04-22T23:07:06.424Z,70.45
2023-04-22T23:09:32.955Z,70.66
2023-04-22T23:11:59.913Z,71.29
2023-04-22T23:14:30.228Z,72.85
2023-04-22T23:16:56.905Z,71.03
2023-04-22T23:19:23.578Z,70.42
2023-04-22T23:21:50.239Z,70.71
2023-04-22T23:24:17.015Z,70.90
2023-04-22T23:26:43.835Z,71.53
2023-04-22T23:29:10.875Z,70.48
2023-04-22T23:31:40.229Z,71.51
2023-04-22T23:34:07.004Z,71.15
2023-04-22T23:36:36.782Z,70.85
2023-04-22T23:39:04.427Z,71.60
2023-04-22T23:41:30.940Z,70.04
2023-04-22T23:43:57.920Z,71.24
2023-04-22T23:46:24.570Z,72.20
2023-04-22T23:48:51.162Z,73.53
2023-04-22T23:51:17.780Z,73.21
2023-04-22T23:53:46.153Z,73.59
2023-04-22T23:56:13.456Z,74.38
2023-04-22T23:58:40.406Z,73.85
